Time;durP1;ratioP1;P1;durP2;ratioP2;P2;SDS_P1;SDS_P2;PMS_P1;PMS_P2;Temp;Humidity;BMP_temperature;BMP_pressure;BME280_temperature;BME280_humidity;BME280_pressure;Samples;Min_cycle;Max_cycle;Signal;HPM_P1;HPM_P2
2021/12/27 00:02:32;;;;;;;;;;;;;;;-3.62;67.17;100086.50;5597940;31;33552;-83
2021/12/27 00:05:35;;;;;;;;;;;;;;;-3.64;66.65;100087.44;5596615;31;33456;-83
2021/12/27 00:08:40;;;;;;;;;;;;;;;-3.64;67.50;100087.44;5596802;31;33573;-83
2021/12/27 00:11:43;;;;;;;;;;;;;;;-3.68;70.50;100091.06;5596430;31;34204;-83
2021/12/27 00:14:45;;;;;;;;;;;;;;;-3.76;69.78;100087.00;5597634;31;33689;-83
2021/12/27 00:17:48;;;;;;;;;;;;;;;-3.82;70.44;100089.81;5596605;31;33433;-84
2021/12/27 00:20:50;;;;;;;;;;;;;;;-3.85;69.74;100083.91;5596195;31;33559;-84
2021/12/27 00:23:53;;;;;;;;;;;;;;;-3.88;69.92;100090.00;5596402;31;34186;-83
2021/12/27 00:26:55;;;;;;;;;;;;;;;-3.90;69.11;100081.50;5599013;31;34013;-83
2021/12/27 00:30:03;;;;;;;;;;;;;;;-3.91;69.64;100079.81;5596495;31;34402;-83
2021/12/27 00:33:08;;;;;;;;;;;;;;;-3.92;68.02;100080.69;5596138;31;34541;-83
2021/12/27 00:36:10;;;;;;;;;;;;;;;-3.92;67.28;100075.53;5595950;31;33493;-83
2021/12/27 00:39:13;;;;;;;;;;;;;;;-3.91;67.66;100079.81;5597882;31;34141;-83
2021/12/27 00:42:17;;;;;;;;;;;;;;;-3.90;68.02;100089.25;5597047;31;33819;-83
2021/12/27 00:45:21;;;;;;;;;;;;;;;-3.86;69.90;100088.22;5597620;31;33595;-83
2021/12/27 00:48:25;;;;;;;;;;;;;;;-3.88;71.36;100085.69;5596085;31;33076;-83
2021/12/27 00:51:30;;;;;;;;;;;;;;;-3.87;72.53;100089.13;5596003;31;33700;-83
2021/12/27 00:54:33;;;;;;;;;;;;;;;-3.88;73.57;100087.41;5595244;31;33188;-83
2021/12/27 00:57:39;;;;;;;;;;;;;;;-3.90;74.29;100078.91;5603789;31;33765;-83
2021/12/27 01:00:41;;;;;;;;;;;;;;;-3.92;74.37;100078.94;5595835;31;33233;-83
2021/12/27 01:03:47;;;;;;;;;;;;;;;-3.93;75.40;100086.75;5596151;31;34439;-83
2021/12/27 01:06:49;;;;;;;;;;;;;;;-3.93;74.59;100082.41;5596949;31;33565;-83
2021/12/27 01:10:05;;;;;;;;;;;;;;;-3.92;76.70;100072.94;5595788;31;33502;-83
2021/12/27 01:13:21;;;;;;;;;;;;;;;-3.86;76.33;100077.06;5596604;31;34293;-83
2021/12/27 01:16:24;;;;;;;;;;;;;;;-3.86;77.46;100070.13;5595066;31;33558;-84
2021/12/27 01:19:31;;;;;;;;;;;;;;;-3.88;76.82;100074.50;5597135;31;33549;-84
2021/12/27 01:22:34;;;;;;;;;;;;;;;-3.91;78.67;100074.63;5596785;31;33274;-83
2021/12/27 01:25:38;;;;;;;;;;;;;;;-3.93;79.81;100076.41;5595624;31;34431;-83
2021/12/27 01:28:41;;;;;;;;;;;;;;;-3.89;80.19;100075.44;5594913;31;33906;-83
2021/12/27 01:31:44;;;;;;;;;;;;;;;-3.76;83.29;100076.66;5595001;31;33641;-83
2021/12/27 01:34:47;;;;;;;;;;;;;;;-3.83;83.70;100072.59;5595879;31;34426;-83
2021/12/27 01:37:50;;;;;;;;;;;;;;;-3.81;84.13;100081.16;5595774;31;34337;-83
2021/12/27 01:40:54;;;;;;;;;;;;;;;-3.82;85.08;100086.34;5597143;31;33643;-83
2021/12/27 01:43:57;;;;;;;;;;;;;;;-3.81;85.87;100075.13;5595013;31;33899;-83
2021/12/27 01:47:00;;;;;;;;;;;;;;;-3.86;86.18;100067.53;5594925;31;33846;-83
2021/12/27 01:50:03;;;;;;;;;;;;;;;-3.87;86.20;100071.03;5594455;31;33380;-83
2021/12/27 01:53:06;;;;;;;;;;;;;;;-3.89;86.31;100063.34;5594345;31;34269;-83
2021/12/27 01:56:10;;;;;;;;;;;;;;;-3.92;85.79;100067.78;5595604;31;33606;-83
2021/12/27 01:59:15;;;;;;;;;;;;;;;-3.94;85.57;100054.06;5595269;31;33277;-83
2021/12/27 02:02:18;;;;;;;;;;;;;;;-3.90;85.44;100061.63;5595425;31;33333;-84
2021/12/27 02:05:21;;;;;;;;;;;;;;;-3.87;85.13;100068.44;5595011;31;33907;-83
2021/12/27 02:08:24;;;;;;;;;;;;;;;-3.84;87.36;100060.56;5599473;31;33652;-83
2021/12/27 02:11:34;;;;;;;;;;;;;;;-3.89;87.41;100070.25;5602147;31;34554;-83
2021/12/27 02:14:36;;;;;;;;;;;;;;;-3.83;86.48;100064.84;5598165;31;33265;-83
2021/12/27 02:17:40;;;;;;;;;;;;;;;-3.87;86.35;100065.84;5597256;31;33312;-84
2021/12/27 02:20:51;;;;;;;;;;;;;;;-3.87;89.79;100071.03;5597324;31;33477;-83
2021/12/27 02:23:55;;;;;;;;;;;;;;;-3.91;87.81;100079.81;5597251;31;34473;-83
2021/12/27 02:26:57;;;;;;;;;;;;;;;-3.88;88.68;100079.66;5597036;31;34251;-83
2021/12/27 02:30:05;;;;;;;;;;;;;;;-3.90;88.09;100084.06;5598210;31;33490;-84
2021/12/27 02:33:09;;;;;;;;;;;;;;;-3.91;88.28;100072.88;5600252;31;33419;-82
2021/12/27 02:36:12;;;;;;;;;;;;;;;-3.89;88.94;100073.66;5597143;31;34274;-81
2021/12/27 02:39:15;;;;;;;;;;;;;;;-3.83;89.70;100057.09;5597252;31;33411;-81
2021/12/27 02:42:20;;;;;;;;;;;;;;;-3.83;89.61;100059.69;5597076;31;34526;-81
2021/12/27 02:45:27;;;;;;;;;;;;;;;-3.82;89.97;100063.09;5596198;31;34202;-81
2021/12/27 02:48:32;;;;;;;;;;;;;;;-3.81;90.61;100059.62;5596746;31;34208;-81
2021/12/27 02:51:38;;;;;;;;;;;;;;;-3.81;91.11;100065.66;5597547;31;33173;-81
2021/12/27 02:54:41;;;;;;;;;;;;;;;-3.77;92.49;100069.78;5596846;31;34006;-81
2021/12/27 02:57:45;;;;;;;;;;;;;;;-3.76;94.37;100063.72;5596656;31;33687;-81
2021/12/27 03:01:14;;;;;;;;;;;;;;;-3.77;94.11;100061.19;5597239;31;34285;-81
2021/12/27 03:04:18;;;;;;;;;;;;;;;-3.74;94.28;100055.94;5599381;31;33711;-81
2021/12/27 03:07:21;;;;;;;;;;;;;;;-3.75;94.28;100062.00;5599791;31;33662;-81
2021/12/27 03:10:32;;;;;;;;;;;;;;;-3.75;94.15;100049.91;5597259;31;33676;-81
2021/12/27 03:13:38;;;;;;;;;;;;;;;-3.70;94.10;100051.47;5598440;31;33736;-81
2021/12/27 03:16:41;;;;;;;;;;;;;;;-3.66;93.63;100053.91;5598494;31;32873;-81
2021/12/27 03:19:46;;;;;;;;;;;;;;;-3.55;93.14;100050.94;5597427;31;33231;-81
2021/12/27 03:22:48;;;;;;;;;;;;;;;-3.47;93.23;100043.72;5604983;31;33573;-81
2021/12/27 03:25:52;;;;;;;;;;;;;;;-3.36;94.43;100045.03;5598215;31;33784;-81
2021/12/27 03:28:58;;;;;;;;;;;;;;;-3.30;93.71;100039.63;5598149;31;33659;-81
2021/12/27 03:32:04;;;;;;;;;;;;;;;-3.23;93.93;100038.50;5598330;31;33866;-83
2021/12/27 03:35:11;;;;;;;;;;;;;;;-3.14;90.70;100042.44;5597360;31;33789;-83
2021/12/27 03:38:14;;;;;;;;;;;;;;;-3.11;91.79;100047.50;5596897;31;33317;-83
2021/12/27 03:41:18;;;;;;;;;;;;;;;-3.10;91.45;100037.09;5598127;31;33781;-83
2021/12/27 03:44:21;;;;;;;;;;;;;;;-3.07;90.73;100041.31;5596314;31;33628;-83
2021/12/27 03:47:24;;;;;;;;;;;;;;;-3.01;89.26;100040.25;5598081;31;33936;-83
2021/12/27 03:50:27;;;;;;;;;;;;;;;-3.00;88.49;100047.09;5596315;31;33633;-83
2021/12/27 03:53:29;;;;;;;;;;;;;;;-3.02;85.25;100044.56;5597783;31;33562;-83
2021/12/27 03:56:32;;;;;;;;;;;;;;;-2.89;82.76;100047.53;5595836;31;34807;-83
2021/12/27 03:59:48;;;;;;;;;;;;;;;-2.81;82.81;100053.22;5597390;31;34014;-82
2021/12/27 04:02:54;;;;;;;;;;;;;;;-2.95;82.62;100051.19;5583723;31;33138;-82
2021/12/27 04:05:57;;;;;;;;;;;;;;;-2.95;83.33;100045.16;5597323;31;33768;-81
2021/12/27 04:09:00;;;;;;;;;;;;;;;-2.99;84.05;100043.63;5596336;31;33504;-83
2021/12/27 04:12:05;;;;;;;;;;;;;;;-3.06;83.55;100047.31;5598062;31;33725;-83
2021/12/27 04:15:08;;;;;;;;;;;;;;;-3.07;84.03;100050.81;5596146;31;33595;-84
2021/12/27 04:18:11;;;;;;;;;;;;;;;-3.14;86.37;100052.81;5595946;31;33636;-83
2021/12/27 04:21:14;;;;;;;;;;;;;;;-3.12;82.13;100049.28;5597972;31;33972;-84
2021/12/27 04:24:16;;;;;;;;;;;;;;;-3.21;83.48;100049.63;5598234;31;33741;-84
2021/12/27 04:27:20;;;;;;;;;;;;;;;-3.25;85.41;100042.88;5596439;31;33906;-84
2021/12/27 04:30:25;;;;;;;;;;;;;;;-3.36;84.44;100039.88;5596382;31;33894;-83
2021/12/27 04:33:27;;;;;;;;;;;;;;;-3.42;85.35;100040.94;5596800;31;33914;-83
2021/12/27 04:36:32;;;;;;;;;;;;;;;-3.47;84.59;100029.91;5598742;31;33477;-83
2021/12/27 04:39:35;;;;;;;;;;;;;;;-3.55;86.13;100037.13;5596366;31;33225;-83
2021/12/27 04:42:41;;;;;;;;;;;;;;;-3.60;87.09;100034.72;5595620;31;34137;-81
2021/12/27 04:45:44;;;;;;;;;;;;;;;-3.57;86.15;100027.69;5596008;31;33894;-81
2021/12/27 04:48:52;;;;;;;;;;;;;;;-3.63;87.12;100034.81;5596209;31;33747;-81
2021/12/27 04:51:54;;;;;;;;;;;;;;;-3.67;87.42;100033.28;5597018;31;33599;-82
2021/12/27 04:54:57;;;;;;;;;;;;;;;-3.70;88.25;100035.97;5595863;31;34264;-82
2021/12/27 04:58:00;;;;;;;;;;;;;;;-3.67;85.45;100030.69;5596165;31;33752;-81
2021/12/27 05:01:03;;;;;;;;;;;;;;;-3.71;86.36;100029.94;5596518;31;34438;-81
2021/12/27 05:04:06;;;;;;;;;;;;;;;-3.72;87.23;100030.87;5595698;31;34485;-82
2021/12/27 05:07:14;;;;;;;;;;;;;;;-3.75;87.82;100034.38;5597533;31;33608;-81
2021/12/27 05:10:20;;;;;;;;;;;;;;;-3.64;85.99;100027.97;5595888;31;33544;-81
2021/12/27 05:13:25;;;;;;;;;;;;;;;-3.64;85.59;100040.91;5595802;31;34388;-81
2021/12/27 05:16:30;;;;;;;;;;;;;;;-3.66;86.13;100042.72;5595723;31;34309;-83
2021/12/27 05:19:35;;;;;;;;;;;;;;;-3.65;87.43;100044.37;5595670;31;33373;-83
2021/12/27 05:22:38;;;;;;;;;;;;;;;-3.57;86.55;100042.38;5597555;31;33934;-83
2021/12/27 05:25:51;;;;;;;;;;;;;;;-3.26;85.86;100043.78;5596614;31;33264;-83
2021/12/27 05:28:53;;;;;;;;;;;;;;;-3.41;86.52;100038.28;5597220;31;33485;-83
2021/12/27 05:32:03;;;;;;;;;;;;;;;-3.45;87.33;100034.16;5597142;31;34939;-83
2021/12/27 05:35:11;;;;;;;;;;;;;;;-3.47;88.87;100035.09;5595808;31;33619;-83
2021/12/27 05:38:14;;;;;;;;;;;;;;;-3.46;89.66;100040.22;5596292;31;33183;-83
2021/12/27 05:41:17;;;;;;;;;;;;;;;-3.39;90.12;100039.97;5599161;31;33179;-83
2021/12/27 05:44:20;;;;;;;;;;;;;;;-3.38;89.95;100039.94;5598381;31;33736;-83
2021/12/27 05:47:22;;;;;;;;;;;;;;;-3.35;89.63;100031.22;5602188;31;34746;-83
2021/12/27 05:50:25;;;;;;;;;;;;;;;-3.34;89.98;100030.31;5594943;31;34286;-83
2021/12/27 05:53:27;;;;;;;;;;;;;;;-3.22;89.40;100036.75;5596398;31;33755;-83
2021/12/27 05:56:30;;;;;;;;;;;;;;;-3.30;90.12;100040.47;5595896;31;34009;-83
2021/12/27 05:59:32;;;;;;;;;;;;;;;-3.32;89.78;100031.94;5595615;31;33763;-83
2021/12/27 06:02:39;;;;;;;;;;;;;;;-3.34;90.63;100031.13;5595455;31;33645;-84
2021/12/27 06:05:42;;;;;;;;;;;;;;;-3.31;90.59;100032.75;5595122;31;33728;-83
2021/12/27 06:08:44;;;;;;;;;;;;;;;-3.31;92.20;100032.75;5594754;31;33584;-83
2021/12/27 06:11:47;;;;;;;;;;;;;;;-3.33;93.10;100032.00;5595250;31;34564;-83
2021/12/27 06:14:49;;;;;;;;;;;;;;;-3.33;93.64;100029.41;5594699;31;34348;-83
2021/12/27 06:17:52;;;;;;;;;;;;;;;-3.35;93.64;100029.44;5595086;31;33571;-83
2021/12/27 06:20:54;;;;;;;;;;;;;;;-3.38;94.88;100021.84;5595491;31;34254;-83
2021/12/27 06:23:57;;;;;;;;;;;;;;;-3.38;94.34;100021.84;5594977;31;34109;-84
2021/12/27 06:27:00;;;;;;;;;;;;;;;-3.41;93.93;100027.94;5596947;31;33842;-83
2021/12/27 06:30:08;;;;;;;;;;;;;;;-3.39;95.67;100024.47;5594860;31;34817;-82
2021/12/27 06:33:10;;;;;;;;;;;;;;;-3.44;95.84;100012.56;5594979;31;33479;-84
2021/12/27 06:36:14;;;;;;;;;;;;;;;-3.43;95.01;100014.22;5595108;31;34150;-84
2021/12/27 06:39:17;;;;;;;;;;;;;;;-3.39;92.57;100019.28;5595019;31;34204;-84
2021/12/27 06:42:19;;;;;;;;;;;;;;;-3.44;93.88;100012.56;5594248;31;33886;-83
2021/12/27 06:45:22;;;;;;;;;;;;;;;-3.47;94.12;100017.84;5594497;31;35469;-83
2021/12/27 06:48:26;;;;;;;;;;;;;;;-3.48;94.13;100018.75;5595874;31;33235;-83
2021/12/27 06:51:29;;;;;;;;;;;;;;;-3.48;92.75;100004.94;5595524;31;33336;-85
2021/12/27 06:54:33;;;;;;;;;;;;;;;-3.49;92.10;100005.88;5597323;31;34806;-83
2021/12/27 06:57:35;;;;;;;;;;;;;;;-3.45;93.71;100018.62;5603947;31;33686;-83
2021/12/27 07:00:38;;;;;;;;;;;;;;;-3.45;90.77;100008.28;5598426;31;34659;-84
2021/12/27 07:03:40;;;;;;;;;;;;;;;-3.36;91.34;100016.59;5597247;31;33819;-84
2021/12/27 07:06:43;;;;;;;;;;;;;;;-3.32;91.42;100015.56;5597063;31;33873;-83
2021/12/27 07:09:48;;;;;;;;;;;;;;;-3.26;91.70;100016.16;5597745;31;33638;-85
2021/12/27 07:12:51;;;;;;;;;;;;;;;-3.27;91.04;100014.50;5597181;31;33593;-83
2021/12/27 07:15:53;;;;;;;;;;;;;;;-3.22;90.82;100019.50;5597862;31;33736;-85
2021/12/27 07:18:57;;;;;;;;;;;;;;;-3.19;90.68;100016.75;5597003;31;33198;-83
2021/12/27 07:21:59;;;;;;;;;;;;;;;-3.16;89.35;100021.00;5597976;31;34166;-83
2021/12/27 07:25:02;;;;;;;;;;;;;;;-3.15;88.56;100022.66;5597403;31;33503;-83
2021/12/27 07:28:06;;;;;;;;;;;;;;;-3.11;89.86;100019.03;5596955;31;34077;-83
2021/12/27 07:31:10;;;;;;;;;;;;;;;-3.07;90.27;100018.03;5598346;31;34180;-84
2021/12/27 07:34:13;;;;;;;;;;;;;;;-3.01;89.35;100004.81;5597054;31;33890;-85
2021/12/27 07:37:16;;;;;;;;;;;;;;;-2.98;89.73;100006.44;5596529;31;34611;-83
2021/12/27 07:40:18;;;;;;;;;;;;;;;-2.99;88.97;100017.72;5598275;31;33592;-85
2021/12/27 07:43:21;;;;;;;;;;;;;;;-2.94;88.08;100013.19;5597682;31;33550;-84
2021/12/27 07:46:24;;;;;;;;;;;;;;;-2.87;88.32;100011.19;5596524;31;34012;-83
2021/12/27 07:49:27;;;;;;;;;;;;;;;-2.81;89.05;100016.97;5598314;31;33697;-83
2021/12/27 07:52:29;;;;;;;;;;;;;;;-2.75;88.02;100025.38;5598995;31;34168;-84
2021/12/27 07:55:32;;;;;;;;;;;;;;;-2.74;87.55;100020.16;5598890;31;34389;-84
2021/12/27 07:58:37;;;;;;;;;;;;;;;-2.66;86.71;100015.50;5598938;31;34244;-83
2021/12/27 08:01:40;;;;;;;;;;;;;;;-2.53;86.55;100015.81;5596828;31;33238;-83
2021/12/27 08:04:44;;;;;;;;;;;;;;;-2.49;85.25;100019.97;5596003;31;33723;-84
2021/12/27 08:07:46;;;;;;;;;;;;;;;-2.46;85.85;100015.56;5597502;31;34103;-83
2021/12/27 08:10:53;;;;;;;;;;;;;;;-2.39;84.43;100016.97;5607262;31;34218;-83
2021/12/27 08:13:55;;;;;;;;;;;;;;;-2.26;84.30;100015.56;5599061;31;35825;-84
2021/12/27 08:16:58;;;;;;;;;;;;;;;-2.17;83.70;100006.53;5600765;31;33758;-83
2021/12/27 08:20:00;;;;;;;;;;;;;;;-1.95;83.35;100006.41;5597056;31;33413;-83
2021/12/27 08:23:03;;;;;;;;;;;;;;;-2.00;83.76;100007.53;5596922;31;33749;-83
2021/12/27 08:26:06;;;;;;;;;;;;;;;-1.87;83.57;100004.34;5596566;31;34146;-83
2021/12/27 08:29:10;;;;;;;;;;;;;;;-1.90;83.64;99999.28;5596201;31;33210;-83
2021/12/27 08:32:13;;;;;;;;;;;;;;;-1.80;84.08;100004.06;5597754;31;33737;-82
2021/12/27 08:35:16;;;;;;;;;;;;;;;-1.50;80.19;100000.94;5597019;31;34647;-82
2021/12/27 08:38:18;;;;;;;;;;;;;;;-1.48;81.69;100004.31;5597973;31;33922;-82
2021/12/27 08:41:27;;;;;;;;;;;;;;;-1.41;81.28;100005.75;5596201;31;36265;-82
2021/12/27 08:44:30;;;;;;;;;;;;;;;-1.45;82.13;100010.22;5598263;31;33421;-82
2021/12/27 08:47:38;;;;;;;;;;;;;;;-1.49;82.85;100007.81;5596627;31;33884;-82
2021/12/27 08:50:41;;;;;;;;;;;;;;;-1.29;80.06;100007.72;5596630;31;33756;-82
2021/12/27 08:53:48;;;;;;;;;;;;;;;-1.19;80.93;100015.09;5595874;31;33741;-82
2021/12/27 08:56:50;;;;;;;;;;;;;;;-1.11;80.57;100023.37;5597394;31;33752;-81
2021/12/27 08:59:56;;;;;;;;;;;;;;;-0.90;77.66;100015.44;5597785;31;33475;-81
2021/12/27 09:02:59;;;;;;;;;;;;;;;-0.87;77.13;100020.50;5596088;31;33985;-81
2021/12/27 09:06:02;;;;;;;;;;;;;;;-0.77;71.85;100019.13;5595504;31;33562;-81
2021/12/27 09:09:05;;;;;;;;;;;;;;;-0.79;70.51;100018.34;5597853;31;33585;-81
2021/12/27 09:12:08;;;;;;;;;;;;;;;-0.82;73.49;100018.50;5596274;31;34072;-83
2021/12/27 09:15:11;;;;;;;;;;;;;;;-0.77;71.51;100013.94;5595462;31;33946;-85
2021/12/27 09:18:14;;;;;;;;;;;;;;;-0.52;69.78;100015.31;5596033;31;33622;-82
2021/12/27 09:21:18;;;;;;;;;;;;;;;-0.56;67.16;100013.78;5601501;31;33744;-81
2021/12/27 09:24:21;;;;;;;;;;;;;;;-0.66;66.63;100014.25;5598618;31;34696;-82
2021/12/27 09:27:23;;;;;;;;;;;;;;;-0.48;65.97;100007.28;5601923;31;33703;-81
2021/12/27 09:30:27;;;;;;;;;;;;;;;-0.50;65.08;100008.25;5596063;31;34021;-81
2021/12/27 09:33:29;;;;;;;;;;;;;;;-0.37;64.95;100008.50;5595661;31;33661;-81
2021/12/27 09:36:34;;;;;;;;;;;;;;;-0.19;64.46;100004.09;5595766;31;33857;-81
2021/12/27 09:39:36;;;;;;;;;;;;;;;-0.21;63.72;99995.53;5597650;31;33753;-83
2021/12/27 09:42:41;;;;;;;;;;;;;;;-0.18;64.19;99987.59;5595154;31;33175;-82
2021/12/27 09:45:43;;;;;;;;;;;;;;;-0.14;66.83;99983.06;5595376;31;33856;-82
2021/12/27 09:48:47;;;;;;;;;;;;;;;-0.18;67.24;99980.63;5595852;31;33872;-85
2021/12/27 09:51:52;;;;;;;;;;;;;;;-0.11;66.65;99980.31;5595919;31;33858;-84
2021/12/27 09:54:57;;;;;;;;;;;;;;;-0.06;67.30;99986.09;5596130;31;33985;-82
2021/12/27 09:57:59;;;;;;;;;;;;;;;-0.19;68.42;99981.53;5597448;31;33573;-82
2021/12/27 10:01:07;;;;;;;;;;;;;;;-0.04;67.74;99979.06;5595957;31;33612;-82
2021/12/27 10:04:10;;;;;;;;;;;;;;;0.02;65.37;99973.50;5595233;31;33769;-82
2021/12/27 10:07:19;;;;;;;;;;;;;;;-0.08;66.37;99967.97;5595115;31;33833;-83
2021/12/27 10:10:22;;;;;;;;;;;;;;;0.09;64.93;99968.81;5595471;31;33914;-82
2021/12/27 10:13:28;;;;;;;;;;;;;;;0.02;59.25;99964.88;5595663;31;33693;-83
2021/12/27 10:16:32;;;;;;;;;;;;;;;0.04;54.30;99963.87;5595351;31;33934;-82
2021/12/27 10:19:36;;;;;;;;;;;;;;;0.26;46.36;99963.56;5596729;31;34253;-82
2021/12/27 10:22:44;;;;;;;;;;;;;;;0.25;44.36;99967.09;5596990;31;34153;-83
2021/12/27 10:25:50;;;;;;;;;;;;;;;0.04;43.96;99965.66;5596123;31;34288;-85
2021/12/27 10:29:05;;;;;;;;;;;;;;;0.37;48.97;99962.97;5598088;31;33218;-82
2021/12/27 10:32:10;;;;;;;;;;;;;;;0.53;47.29;99962.97;5598454;31;33088;-83
2021/12/27 10:35:13;;;;;;;;;;;;;;;0.22;46.80;99958.62;5603823;31;33279;-82
2021/12/27 10:38:27;;;;;;;;;;;;;;;0.46;50.20;99959.03;5604609;31;33320;-83
2021/12/27 10:41:35;;;;;;;;;;;;;;;0.72;50.84;99956.75;5598449;31;33622;-83
2021/12/27 10:44:38;;;;;;;;;;;;;;;0.68;47.58;99960.44;5598551;31;33945;-82
2021/12/27 10:47:42;;;;;;;;;;;;;;;0.80;46.79;99959.75;5598245;31;33874;-82
2021/12/27 10:50:45;;;;;;;;;;;;;;;0.78;44.86;99961.59;5598557;31;33650;-82
2021/12/27 10:53:49;;;;;;;;;;;;;;;0.67;47.69;99961.34;5601378;31;33681;-81
2021/12/27 10:56:53;;;;;;;;;;;;;;;0.84;48.71;99950.84;5598551;31;34733;-81
2021/12/27 11:00:13;;;;;;;;;;;;;;;0.92;48.58;99952.97;5599137;31;33752;-81
2021/12/27 11:03:23;;;;;;;;;;;;;;;0.71;49.33;99955.87;5598198;31;33997;-83
2021/12/27 11:06:30;;;;;;;;;;;;;;;0.62;47.00;99956.41;5597628;31;33665;-83
2021/12/27 11:09:33;;;;;;;;;;;;;;;0.66;45.74;99951.88;5598886;31;34334;-82
2021/12/27 11:12:39;;;;;;;;;;;;;;;0.90;46.77;99940.06;5597480;31;34168;-82
2021/12/27 11:15:44;;;;;;;;;;;;;;;0.59;45.06;99943.56;5597398;31;33384;-84
2021/12/27 11:18:47;;;;;;;;;;;;;;;0.57;47.03;99938.44;5596737;31;34381;-83
2021/12/27 11:21:51;;;;;;;;;;;;;;;0.67;43.47;99937.91;5598634;31;34237;-83
2021/12/27 11:24:53;;;;;;;;;;;;;;;0.90;45.49;99937.44;5598183;31;33613;-83
2021/12/27 11:27:56;;;;;;;;;;;;;;;1.04;44.56;99935.81;5597596;31;33584;-83
2021/12/27 11:31:01;;;;;;;;;;;;;;;0.89;46.73;99927.97;5597918;31;34497;-83
2021/12/27 11:34:08;;;;;;;;;;;;;;;1.04;46.42;99922.78;5597445;31;33796;-83
2021/12/27 11:37:13;;;;;;;;;;;;;;;0.72;44.79;99928.09;5597801;31;33838;-83
2021/12/27 11:40:18;;;;;;;;;;;;;;;1.02;42.35;99924.66;5599241;31;33852;-82
2021/12/27 11:43:20;;;;;;;;;;;;;;;0.99;39.82;99927.41;5597431;31;34309;-82
2021/12/27 11:46:24;;;;;;;;;;;;;;;1.06;42.19;99923.56;5597700;31;33565;-83
2021/12/27 11:49:51;;;;;;;;;;;;;;;1.14;41.92;99929.16;5605961;31;34751;-83
2021/12/27 11:52:55;;;;;;;;;;;;;;;1.16;40.76;99922.09;5589384;31;34683;-82
2021/12/27 11:56:00;;;;;;;;;;;;;;;1.06;40.88;99911.34;5597205;31;33821;-82
2021/12/27 11:59:23;;;;;;;;;;;;;;;1.11;40.05;99911.06;5596909;31;34854;-84
2021/12/27 12:02:29;;;;;;;;;;;;;;;1.49;39.39;99905.34;5566268;31;33765;-84
2021/12/27 12:05:49;;;;;;;;;;;;;;;1.32;37.15;99906.38;5597189;31;34619;-82
2021/12/27 12:08:52;;;;;;;;;;;;;;;1.30;37.68;99895.19;5596687;31;34331;-83
2021/12/27 12:12:02;;;;;;;;;;;;;;;1.26;40.60;99888.47;5596781;31;34732;-83
2021/12/27 12:15:05;;;;;;;;;;;;;;;1.11;41.46;99895.44;5597187;31;33406;-83
2021/12/27 12:18:15;;;;;;;;;;;;;;;1.28;39.98;99891.00;5596686;31;33935;-84
2021/12/27 12:21:33;;;;;;;;;;;;;;;1.19;39.54;99888.00;5597429;31;33607;-83
2021/12/27 12:24:36;;;;;;;;;;;;;;;1.13;39.79;99879.72;5596477;31;33921;-82
2021/12/27 12:27:54;;;;;;;;;;;;;;;0.80;42.88;99876.41;5596249;31;33575;-82
2021/12/27 12:30:58;;;;;;;;;;;;;;;0.88;41.77;99879.41;5596289;31;33604;-82
2021/12/27 12:34:20;;;;;;;;;;;;;;;1.00;42.31;99875.25;5596817;31;33085;-83
2021/12/27 12:37:24;;;;;;;;;;;;;;;1.11;40.85;99868.56;5598177;31;33646;-83
2021/12/27 12:40:27;;;;;;;;;;;;;;;1.12;39.36;99871.06;5596716;31;33958;-83
2021/12/27 12:43:51;;;;;;;;;;;;;;;1.25;37.97;99865.13;5597023;31;34762;-82
2021/12/27 12:46:53;;;;;;;;;;;;;;;0.92;36.46;99870.47;5596131;31;36154;-83
2021/12/27 12:49:59;;;;;;;;;;;;;;;1.06;37.63;99859.25;5594991;31;33846;-82
2021/12/27 12:53:06;;;;;;;;;;;;;;;1.15;41.10;99860.47;5596246;31;33679;-83
2021/12/27 12:56:13;;;;;;;;;;;;;;;1.17;41.74;99869.03;5596270;31;33484;-84
2021/12/27 12:59:19;;;;;;;;;;;;;;;1.03;42.40;99872.44;5598318;31;34153;-83
2021/12/27 13:02:25;;;;;;;;;;;;;;;1.00;44.62;99879.59;5605580;31;34543;-84
2021/12/27 13:05:29;;;;;;;;;;;;;;;1.07;43.92;99876.56;5597121;31;34627;-83
2021/12/27 13:08:32;;;;;;;;;;;;;;;1.11;43.86;99874.59;5596053;31;33497;-83
2021/12/27 13:11:37;;;;;;;;;;;;;;;1.18;43.18;99873.28;5597306;31;33640;-83
2021/12/27 13:14:40;;;;;;;;;;;;;;;1.20;45.14;99874.03;5597029;31;34594;-83
2021/12/27 13:18:02;;;;;;;;;;;;;;;0.92;44.73;99862.66;5599279;31;33942;-83
2021/12/27 13:21:09;;;;;;;;;;;;;;;1.00;43.81;99857.00;5597854;31;34344;-83
2021/12/27 13:24:12;;;;;;;;;;;;;;;1.14;43.34;99864.00;5596327;31;34352;-83
2021/12/27 13:27:25;;;;;;;;;;;;;;;1.18;40.02;99862.88;5596023;31;33644;-83
2021/12/27 13:30:28;;;;;;;;;;;;;;;1.12;39.06;99855.44;5596291;31;33412;-83
2021/12/27 13:33:35;;;;;;;;;;;;;;;1.11;42.21;99858.97;5597023;31;33633;-83
2021/12/27 13:36:39;;;;;;;;;;;;;;;0.94;44.62;99856.53;5598878;31;33868;-83
2021/12/27 13:39:42;;;;;;;;;;;;;;;0.94;44.16;99856.53;5597927;31;36041;-84
2021/12/27 13:42:44;;;;;;;;;;;;;;;0.98;44.78;99852.81;5595134;31;34254;-83
2021/12/27 13:45:51;;;;;;;;;;;;;;;1.02;44.49;99860.34;5594914;31;34496;-83
2021/12/27 13:48:57;;;;;;;;;;;;;;;1.15;43.77;99851.78;5596602;31;33762;-83
2021/12/27 13:52:07;;;;;;;;;;;;;;;1.04;45.42;99858.50;5594341;31;33918;-83
2021/12/27 13:55:20;;;;;;;;;;;;;;;1.16;45.41;99862.16;5595695;31;33271;-84
2021/12/27 13:58:23;;;;;;;;;;;;;;;1.05;51.19;99859.34;5596289;31;33667;-84
2021/12/27 14:01:26;;;;;;;;;;;;;;;0.95;52.83;99861.66;5596064;31;33354;-84
2021/12/27 14:04:29;;;;;;;;;;;;;;;0.97;53.05;99858.94;5597412;31;33254;-83
2021/12/27 14:07:32;;;;;;;;;;;;;;;0.84;53.88;99862.28;5599528;31;34233;-84
2021/12/27 14:10:36;;;;;;;;;;;;;;;0.89;53.53;99854.19;5600014;31;33730;-83
2021/12/27 14:13:45;;;;;;;;;;;;;;;1.00;50.75;99866.56;5605120;31;33524;-83
2021/12/27 14:17:01;;;;;;;;;;;;;;;1.12;49.83;99865.84;5605810;31;33915;-83
2021/12/27 14:20:05;;;;;;;;;;;;;;;0.92;50.22;99861.81;5598232;31;33562;-83
2021/12/27 14:23:12;;;;;;;;;;;;;;;0.79;50.37;99864.31;5598094;31;33608;-83
2021/12/27 14:26:15;;;;;;;;;;;;;;;0.67;50.18;99865.00;5599296;31;33784;-84
2021/12/27 14:29:22;;;;;;;;;;;;;;;0.52;50.77;99867.56;5596939;31;33498;-83
2021/12/27 14:32:25;;;;;;;;;;;;;;;0.59;51.17;99868.91;5597608;31;34629;-83
2021/12/27 14:35:33;;;;;;;;;;;;;;;0.41;51.98;99865.59;5597361;31;33766;-83
2021/12/27 14:38:36;;;;;;;;;;;;;;;0.27;52.00;99855.97;5597507;31;33601;-83
2021/12/27 14:41:38;;;;;;;;;;;;;;;0.19;52.62;99860.72;5597142;31;33695;-83
2021/12/27 14:44:43;;;;;;;;;;;;;;;0.19;53.47;99852.94;5597495;31;33652;-83
2021/12/27 14:47:46;;;;;;;;;;;;;;;0.16;54.63;99850.53;5596751;31;33562;-83
2021/12/27 14:50:49;;;;;;;;;;;;;;;0.22;54.88;99850.16;5596942;31;33554;-83
2021/12/27 14:53:55;;;;;;;;;;;;;;;0.14;57.28;99844.56;5597095;31;34860;-83
2021/12/27 14:56:57;;;;;;;;;;;;;;;0.09;58.24;99843.97;5598104;31;34054;-83
2021/12/27 15:00:00;;;;;;;;;;;;;;;-0.07;53.46;99844.84;5597582;31;33387;-83
2021/12/27 15:03:02;;;;;;;;;;;;;;;-0.07;52.94;99844.84;5597027;31;33825;-83
2021/12/27 15:06:05;;;;;;;;;;;;;;;-0.12;55.54;99852.03;5597122;31;33802;-83
2021/12/27 15:09:10;;;;;;;;;;;;;;;-0.19;54.03;99848.09;5597220;31;33826;-84
2021/12/27 15:12:12;;;;;;;;;;;;;;;-0.19;55.04;99846.31;5596268;31;33445;-83
2021/12/27 15:15:18;;;;;;;;;;;;;;;-0.19;55.86;99842.91;5596534;31;33226;-83
2021/12/27 15:18:22;;;;;;;;;;;;;;;-0.21;58.34;99842.13;5596302;31;34323;-83
2021/12/27 15:21:28;;;;;;;;;;;;;;;-0.21;56.32;99836.94;5598821;31;33525;-83
2021/12/27 15:24:31;;;;;;;;;;;;;;;-0.21;59.14;99837.75;5599229;31;33588;-84
2021/12/27 15:27:33;;;;;;;;;;;;;;;-0.30;56.93;99842.66;5598595;31;34195;-83
2021/12/27 15:30:37;;;;;;;;;;;;;;;-0.30;56.72;99853.03;5605997;31;33699;-83
2021/12/27 15:33:40;;;;;;;;;;;;;;;-0.34;58.03;99854.97;5596832;31;34724;-83
2021/12/27 15:36:43;;;;;;;;;;;;;;;-0.32;58.41;99855.69;5596649;31;33481;-83
2021/12/27 15:39:48;;;;;;;;;;;;;;;-0.28;58.13;99861.59;5597497;31;33707;-84
2021/12/27 15:42:53;;;;;;;;;;;;;;;-0.32;59.82;99860.91;5596783;31;33594;-84
2021/12/27 15:45:59;;;;;;;;;;;;;;;-0.25;61.83;99861.41;5596408;31;33416;-83
2021/12/27 15:49:02;;;;;;;;;;;;;;;-0.25;62.15;99862.28;5596143;31;33351;-84
2021/12/27 15:52:07;;;;;;;;;;;;;;;-0.30;64.50;99848.66;5596339;31;33852;-83
2021/12/27 15:55:11;;;;;;;;;;;;;;;-0.34;60.83;99850.59;5596020;31;33033;-83
2021/12/27 15:58:16;;;;;;;;;;;;;;;-0.35;60.27;99851.50;5597129;31;33575;-84